Time;durP1;ratioP1;P1;durP2;ratioP2;P2;SDS_P1;SDS_P2;PMS_P1;PMS_P2;Temp;Humidity;BMP_temperature;BMP_pressure;BME280_temperature;BME280_humidity;BME280_pressure;Samples;Min_cycle;Max_cycle;Signal;HPM_P1;HPM_P2
2022/02/24 00:01:12;;;;;;;597.13;150.17;;;7.90;99.90;;;;;;4955446;28;20873;-70
2022/02/24 00:03:42;;;;;;;574.43;154.97;;;7.90;99.90;;;;;;4955736;29;20449;-70
2022/02/24 00:06:12;;;;;;;514.90;134.13;;;7.80;99.90;;;;;;4954911;28;21017;-70
2022/02/24 00:08:41;;;;;;;280.90;97.37;;;7.80;99.90;;;;;;4954143;29;20510;-70
2022/02/24 00:11:09;;;;;;;479.87;147.10;;;7.80;99.90;;;;;;4954945;28;20458;-70
2022/02/24 00:13:37;;;;;;;288.93;113.50;;;7.80;99.90;;;;;;4955521;29;20518;-70
2022/02/24 00:16:06;;;;;;;278.63;106.57;;;7.80;99.90;;;;;;4955547;29;20469;-70
2022/02/24 00:18:34;;;;;;;209.93;81.07;;;7.80;99.90;;;;;;4954626;28;20437;-70
2022/02/24 00:21:04;;;;;;;296.40;105.80;;;7.80;99.90;;;;;;4954463;28;20464;-70
2022/02/24 00:23:32;;;;;;;183.20;70.40;;;7.80;99.90;;;;;;4953899;29;20444;-70
2022/02/24 00:26:00;;;;;;;110.43;49.07;;;7.80;99.90;;;;;;4955132;29;20446;-70
2022/02/24 00:28:28;;;;;;;213.53;56.30;;;7.70;99.90;;;;;;4954050;28;20456;-70
2022/02/24 00:30:56;;;;;;;103.67;36.87;;;7.70;99.90;;;;;;4953766;28;20450;-70
2022/02/24 00:33:24;;;;;;;83.90;45.17;;;7.70;99.90;;;;;;4955518;28;20449;-70
2022/02/24 00:35:52;;;;;;;173.57;59.50;;;7.70;99.90;;;;;;4953691;29;20460;-70
2022/02/24 00:38:22;;;;;;;146.63;47.50;;;7.70;99.90;;;;;;4955189;29;20534;-70
2022/02/24 00:40:50;;;;;;;217.00;54.40;;;7.70;99.90;;;;;;4955384;28;20525;-70
2022/02/24 00:43:18;;;;;;;174.43;57.03;;;7.80;99.90;;;;;;4954860;28;20992;-70
2022/02/24 00:45:47;;;;;;;159.03;46.73;;;7.70;99.90;;;;;;4953904;28;20540;-70
2022/02/24 00:48:15;;;;;;;139.90;46.00;;;7.70;99.90;;;;;;4954846;28;20541;-70
2022/02/24 00:50:44;;;;;;;438.37;131.83;;;7.80;99.90;;;;;;4955093;28;20835;-70
2022/02/24 00:53:14;;;;;;;445.40;126.53;;;7.80;99.90;;;;;;4955412;29;20452;-70
2022/02/24 00:55:44;;;;;;;1412.37;337.30;;;7.80;99.90;;;;;;4954677;28;20462;-70
2022/02/24 00:58:12;;;;;;;1198.37;367.70;;;7.80;99.90;;;;;;4955543;28;20472;-70
2022/02/24 01:00:40;;;;;;;1793.53;483.70;;;7.80;99.90;;;;;;4955221;28;20524;-70
2022/02/24 01:03:08;;;;;;;1680.03;475.80;;;7.80;99.90;;;;;;4954929;29;20519;-70
2022/02/24 01:05:37;;;;;;;1999.90;880.73;;;7.90;99.90;;;;;;4954257;29;20450;-70
2022/02/24 01:08:05;;;;;;;1999.90;808.97;;;7.90;99.90;;;;;;4954733;28;20543;-70
2022/02/24 01:10:33;;;;;;;1999.90;931.00;;;7.90;99.90;;;;;;4954748;29;20516;-70
2022/02/24 01:13:03;;;;;;;1999.90;883.07;;;7.90;99.90;;;;;;4954623;28;20462;-70
2022/02/24 01:15:31;;;;;;;1999.90;999.90;;;7.90;99.90;;;;;;4954927;28;20856;-70
2022/02/24 01:18:00;;;;;;;1999.90;999.90;;;7.90;99.90;;;;;;4953385;28;20449;-70
2022/02/24 01:20:28;;;;;;;1999.90;999.90;;;7.90;99.90;;;;;;4954925;29;20437;-70
2022/02/24 01:22:56;;;;;;;1999.90;999.90;;;8.00;99.90;;;;;;4954442;28;20481;-70
2022/02/24 01:25:24;;;;;;;1999.90;999.90;;;8.00;99.90;;;;;;4954584;29;20918;-70
2022/02/24 01:27:53;;;;;;;1999.90;920.20;;;8.00;99.90;;;;;;4954601;28;20445;-70
2022/02/24 01:30:25;;;;;;;1999.90;999.90;;;8.00;99.90;;;;;;4958442;29;20464;-70
2022/02/24 01:32:53;;;;;;;1999.90;999.90;;;8.00;99.90;;;;;;4956816;28;20466;-70
2022/02/24 01:35:21;;;;;;;1999.90;999.90;;;8.00;99.90;;;;;;4956844;29;20516;-70
2022/02/24 01:37:50;;;;;;;1999.90;999.90;;;8.10;99.90;;;;;;4958511;29;20473;-70
2022/02/24 01:40:19;;;;;;;1999.90;999.90;;;8.10;99.90;;;;;;4958653;29;20480;-70
2022/02/24 01:42:47;;;;;;;1999.90;999.90;;;8.10;99.90;;;;;;4958036;28;20509;-70
2022/02/24 01:45:16;;;;;;;1999.90;999.90;;;8.10;99.90;;;;;;4958634;29;20437;-70
2022/02/24 01:47:45;;;;;;;1999.90;999.90;;;8.10;99.90;;;;;;4957839;29;20911;-71
2022/02/24 01:50:14;;;;;;;1999.90;999.90;;;8.10;99.90;;;;;;4958067;28;20462;-70
2022/02/24 01:52:44;;;;;;;1999.90;999.90;;;8.10;99.90;;;;;;4957927;28;20509;-70
2022/02/24 01:55:12;;;;;;;1999.90;999.90;;;8.00;99.90;;;;;;4957823;28;20470;-71
2022/02/24 01:57:41;;;;;;;1999.90;999.90;;;8.00;99.90;;;;;;4958457;29;20865;-70
2022/02/24 02:00:10;;;;;;;1999.90;999.90;;;8.10;99.90;;;;;;4957833;28;20439;-70
2022/02/24 02:02:42;;;;;;;1999.90;973.60;;;8.10;99.90;;;;;;4957021;28;20486;-70
2022/02/24 02:05:12;;;;;;;1999.90;931.70;;;8.10;99.90;;;;;;4957486;28;20470;-70
2022/02/24 02:07:41;;;;;;;1999.90;923.07;;;8.10;99.90;;;;;;4957475;28;20487;-70
2022/02/24 02:10:09;;;;;;;1999.90;991.83;;;8.10;99.90;;;;;;4957660;28;20541;-70
2022/02/24 02:12:48;;;;;;;1999.90;962.10;;;8.10;99.90;;;;;;4957275;29;20511;-70
2022/02/24 02:15:17;;;;;;;1999.90;987.23;;;8.10;99.90;;;;;;4957652;29;20415;-70
2022/02/24 02:17:47;;;;;;;1999.90;959.20;;;8.10;99.90;;;;;;4956079;29;20457;-70
2022/02/24 02:20:18;;;;;;;1999.90;870.87;;;8.10;99.90;;;;;;4957328;28;20932;-70
2022/02/24 02:22:49;;;;;;;1999.90;676.47;;;8.10;99.90;;;;;;4955814;29;20485;-70
2022/02/24 02:25:20;;;;;;;1955.40;493.87;;;8.10;99.90;;;;;;4957503;28;20458;-70
2022/02/24 02:27:50;;;;;;;1999.90;890.90;;;8.10;99.90;;;;;;4957119;28;20518;-70
2022/02/24 02:30:20;;;;;;;1999.90;353.93;;;8.10;99.90;;;;;;4957013;28;20480;-70
2022/02/24 02:32:48;;;;;;;1838.40;219.73;;;8.10;99.90;;;;;;4957056;28;20466;-71
2022/02/24 02:35:17;;;;;;;1999.90;352.80;;;8.10;99.90;;;;;;4957264;29;20436;-70
2022/02/24 02:37:46;;;;;;;1999.90;793.93;;;8.10;99.90;;;;;;4957642;29;20866;-70
2022/02/24 02:40:15;;;;;;;1999.90;758.00;;;8.10;99.90;;;;;;4956367;28;20477;-70
2022/02/24 02:42:43;;;;;;;1955.43;272.67;;;8.10;99.90;;;;;;4955156;29;21103;-70
2022/02/24 02:45:11;;;;;;;1922.90;240.63;;;8.10;99.90;;;;;;4957578;28;20480;-70
2022/02/24 02:47:40;;;;;;;1999.90;999.90;;;8.10;99.90;;;;;;4955638;29;20896;-70
2022/02/24 02:50:08;;;;;;;1999.90;255.80;;;8.10;99.90;;;;;;4955483;28;20485;-70
2022/02/24 02:52:43;;;;;;;1999.90;999.90;;;8.10;99.90;;;;;;4955405;28;20995;-70
2022/02/24 02:55:13;;;;;;;1999.90;749.00;;;8.10;99.90;;;;;;4956482;28;20461;-70
2022/02/24 02:57:41;;;;;;;1882.40;713.47;;;8.10;99.90;;;;;;4956911;28;20440;-70
2022/02/24 03:00:12;;;;;;;1832.03;176.33;;;8.10;99.90;;;;;;4956488;28;20438;-70
2022/02/24 03:02:40;;;;;;;1965.33;290.67;;;8.10;99.90;;;;;;4955919;28;20511;-70
2022/02/24 03:05:10;;;;;;;1997.50;332.70;;;8.10;99.90;;;;;;4956685;28;20940;-70
2022/02/24 03:07:38;;;;;;;1946.67;440.80;;;8.10;99.90;;;;;;4955105;28;20452;-70
2022/02/24 03:10:07;;;;;;;1999.90;278.43;;;8.10;99.90;;;;;;4956878;28;20568;-70
2022/02/24 03:12:38;;;;;;;1999.90;762.23;;;8.10;99.90;;;;;;4956223;28;20477;-70
2022/02/24 03:15:09;;;;;;;1999.90;582.17;;;8.10;99.90;;;;;;4955003;29;20457;-70
2022/02/24 03:17:37;;;;;;;1999.90;414.53;;;8.10;99.90;;;;;;4956720;29;20887;-70
2022/02/24 03:20:07;;;;;;;1999.90;598.33;;;8.10;99.90;;;;;;4956227;29;20868;-70
2022/02/24 03:22:35;;;;;;;1999.90;930.20;;;8.10;99.90;;;;;;4956038;28;20515;-70
2022/02/24 03:25:04;;;;;;;1999.90;619.97;;;8.10;99.90;;;;;;4955811;29;20453;-70
2022/02/24 03:27:33;;;;;;;1999.90;406.63;;;8.10;99.90;;;;;;4954751;29;20506;-70
2022/02/24 03:30:04;;;;;;;1999.90;620.20;;;8.10;99.90;;;;;;4956449;29;20537;-70
2022/02/24 03:32:32;;;;;;;1999.90;757.20;;;8.10;99.90;;;;;;4954642;28;20474;-70
2022/02/24 03:35:01;;;;;;;1999.90;743.77;;;8.10;99.90;;;;;;4955911;28;20880;-70
2022/02/24 03:37:29;;;;;;;1999.90;581.67;;;8.10;99.90;;;;;;4955928;29;20471;-70
2022/02/24 03:39:58;;;;;;;1999.90;384.87;;;8.10;99.90;;;;;;4956079;28;20457;-70
2022/02/24 03:42:28;;;;;;;1999.90;878.53;;;8.10;99.90;;;;;;4956028;28;21002;-70
2022/02/24 03:45:01;;;;;;;1999.90;707.27;;;8.10;99.90;;;;;;4955331;28;20910;-70
2022/02/24 03:47:30;;;;;;;1999.90;806.57;;;8.10;99.90;;;;;;4954906;29;21018;-70
2022/02/24 03:50:00;;;;;;;1999.90;908.00;;;8.10;99.90;;;;;;4951390;29;20448;-70
2022/02/24 03:52:28;;;;;;;1999.90;895.13;;;8.00;99.90;;;;;;4954645;28;20476;-70
2022/02/24 03:54:56;;;;;;;1999.90;819.83;;;8.00;99.90;;;;;;4955551;29;20955;-70
2022/02/24 03:57:25;;;;;;;1999.90;727.73;;;8.00;99.90;;;;;;4955821;29;20926;-70
2022/02/24 03:59:53;;;;;;;1999.90;742.03;;;8.00;99.90;;;;;;4955748;29;20434;-70
2022/02/24 04:02:23;;;;;;;1999.90;882.00;;;8.10;99.90;;;;;;4955992;28;20501;-70
2022/02/24 04:04:51;;;;;;;1999.90;949.13;;;8.00;99.90;;;;;;4955593;29;20466;-70
2022/02/24 04:07:20;;;;;;;1999.90;974.90;;;8.00;99.90;;;;;;4955123;28;20490;-70
2022/02/24 04:09:48;;;;;;;1999.90;999.90;;;8.00;99.90;;;;;;4955401;29;20438;-70
2022/02/24 04:12:17;;;;;;;1999.90;983.07;;;8.00;99.90;;;;;;4953970;28;20477;-70
2022/02/24 04:14:45;;;;;;;1999.90;999.90;;;8.00;99.90;;;;;;4954171;28;20460;-71
2022/02/24 04:17:15;;;;;;;1999.90;990.93;;;8.00;99.90;;;;;;4955873;29;20457;-71
2022/02/24 04:19:44;;;;;;;1999.90;989.83;;;8.00;99.90;;;;;;4955290;28;20955;-71
2022/02/24 04:22:13;;;;;;;1999.90;999.90;;;8.00;99.90;;;;;;4955089;28;20497;-70
2022/02/24 04:24:41;;;;;;;1999.90;994.17;;;8.00;99.90;;;;;;4955086;29;20508;-70
2022/02/24 04:27:10;;;;;;;1999.90;953.70;;;8.00;99.90;;;;;;4953815;28;20451;-70
2022/02/24 04:29:39;;;;;;;1999.90;999.90;;;8.00;99.90;;;;;;4952882;29;20472;-70
2022/02/24 04:32:08;;;;;;;1999.90;958.50;;;8.00;99.90;;;;;;4955020;28;20975;-70
2022/02/24 04:34:36;;;;;;;1999.90;992.93;;;8.00;99.90;;;;;;4955066;29;20449;-71
2022/02/24 04:37:06;;;;;;;1999.90;931.73;;;8.00;99.90;;;;;;4953895;28;20457;-71
2022/02/24 04:39:34;;;;;;;1999.90;999.90;;;8.00;99.90;;;;;;4953766;29;20450;-71
2022/02/24 04:42:03;;;;;;;1999.90;999.90;;;8.00;99.90;;;;;;4954925;29;20457;-70
2022/02/24 04:44:31;;;;;;;1999.90;967.63;;;8.00;99.90;;;;;;4955714;29;20988;-70
2022/02/24 04:47:00;;;;;;;1999.90;995.60;;;8.00;99.90;;;;;;4954878;28;20469;-70
2022/02/24 04:49:28;;;;;;;1999.90;999.90;;;8.00;99.90;;;;;;4955324;29;20446;-70
2022/02/24 04:51:56;;;;;;;1999.90;955.07;;;7.90;99.90;;;;;;4952880;29;20473;-70
2022/02/24 04:54:26;;;;;;;1999.90;999.90;;;7.90;99.90;;;;;;4955018;28;20477;-70
2022/02/24 04:56:55;;;;;;;1999.90;983.53;;;8.00;99.90;;;;;;4955264;28;20550;-70
2022/02/24 04:59:23;;;;;;;1999.90;999.90;;;7.90;99.90;;;;;;4954807;29;20499;-70
2022/02/24 05:01:51;;;;;;;1999.90;949.80;;;7.90;99.90;;;;;;4954711;28;20468;-70
2022/02/24 05:04:20;;;;;;;1999.90;999.90;;;7.90;99.90;;;;;;4955858;28;20894;-70
2022/02/24 05:06:48;;;;;;;1999.90;997.60;;;8.00;99.90;;;;;;4957346;28;20446;-70
2022/02/24 05:09:17;;;;;;;1999.90;999.90;;;7.90;99.90;;;;;;4958718;29;20500;-70
2022/02/24 05:11:46;;;;;;;1999.90;999.83;;;7.90;99.90;;;;;;4958471;28;20463;-70
2022/02/24 05:14:15;;;;;;;1999.90;992.23;;;7.90;99.90;;;;;;4959006;29;20471;-70
2022/02/24 05:16:43;;;;;;;1999.90;999.90;;;7.90;99.90;;;;;;4958700;28;20443;-70
2022/02/24 05:19:12;;;;;;;1999.90;999.90;;;7.90;99.90;;;;;;4958646;29;20484;-70
2022/02/24 05:21:40;;;;;;;1999.90;986.23;;;7.90;99.90;;;;;;4958264;28;20826;-70
2022/02/24 05:24:09;;;;;;;1999.90;958.77;;;8.00;99.90;;;;;;4956476;28;21053;-71
2022/02/24 05:26:37;;;;;;;1999.90;998.23;;;7.90;99.90;;;;;;4937818;29;20450;-70
2022/02/24 05:29:07;;;;;;;1999.90;911.97;;;7.90;99.90;;;;;;4937748;29;20944;-70
2022/02/24 05:31:35;;;;;;;1999.90;999.90;;;8.00;99.90;;;;;;4937699;29;20483;-70
2022/02/24 05:34:04;;;;;;;1999.90;872.23;;;8.00;99.90;;;;;;4938930;29;20854;-71
2022/02/24 05:36:32;;;;;;;1999.90;911.93;;;7.90;99.90;;;;;;4953157;29;20499;-70
2022/02/24 05:39:01;;;;;;;1999.90;890.03;;;7.90;99.90;;;;;;4956584;29;20458;-70
2022/02/24 05:41:29;;;;;;;1999.90;830.80;;;7.90;99.90;;;;;;4956893;28;20498;-70
2022/02/24 05:44:02;;;;;;;1999.90;829.97;;;7.90;99.90;;;;;;4958213;28;20491;-70
2022/02/24 05:46:31;;;;;;;1999.90;785.13;;;7.90;99.90;;;;;;4956597;28;20441;-70
2022/02/24 05:49:00;;;;;;;1999.90;974.90;;;7.90;99.90;;;;;;4958364;29;20461;-70
2022/02/24 05:51:28;;;;;;;1999.90;936.53;;;7.90;99.90;;;;;;4957225;29;21007;-70
2022/02/24 05:53:57;;;;;;;1999.90;766.23;;;7.90;99.90;;;;;;4958217;28;20456;-70
2022/02/24 05:56:27;;;;;;;1999.90;794.63;;;7.90;99.90;;;;;;4956368;29;20461;-70
2022/02/24 05:58:55;;;;;;;1999.90;840.13;;;7.90;99.90;;;;;;4957637;28;20467;-70
2022/02/24 06:01:24;;;;;;;1999.90;826.77;;;7.90;99.90;;;;;;4957860;28;20548;-70
2022/02/24 06:03:54;;;;;;;1999.90;858.20;;;7.90;99.90;;;;;;4957526;28;20956;-70
2022/02/24 06:06:22;;;;;;;1999.90;822.10;;;7.90;99.90;;;;;;4956280;29;20516;-70
2022/02/24 06:08:50;;;;;;;1999.90;691.73;;;7.90;99.90;;;;;;4957473;29;20924;-71
2022/02/24 06:11:18;;;;;;;1999.90;689.07;;;7.90;99.90;;;;;;4956387;28;20561;-71
2022/02/24 06:13:47;;;;;;;1999.90;769.13;;;7.90;99.90;;;;;;4956598;29;20443;-71
2022/02/24 06:16:15;;;;;;;1999.90;665.63;;;7.90;99.90;;;;;;4956728;28;20446;-71
2022/02/24 06:18:43;;;;;;;1976.70;641.23;;;7.80;99.90;;;;;;4957414;29;20443;-71
2022/02/24 06:21:16;;;;;;;1913.93;618.57;;;7.80;99.90;;;;;;4955973;28;20493;-70
2022/02/24 06:23:45;;;;;;;1914.37;604.33;;;7.80;99.90;;;;;;4956041;28;20481;-70
2022/02/24 06:26:13;;;;;;;1396.97;418.73;;;7.80;99.90;;;;;;4957111;29;20512;-70
2022/02/24 06:28:41;;;;;;;1186.87;401.70;;;7.80;99.90;;;;;;4957377;28;20537;-70
2022/02/24 06:31:10;;;;;;;1403.10;396.50;;;7.80;99.90;;;;;;4957215;28;20464;-70
2022/02/24 06:33:38;;;;;;;1351.17;408.43;;;7.80;99.90;;;;;;4957079;28;20480;-70
2022/02/24 06:36:06;;;;;;;1609.47;475.63;;;7.80;99.90;;;;;;4956869;29;20633;-70
2022/02/24 06:38:35;;;;;;;1659.33;551.30;;;7.80;99.90;;;;;;4957194;28;20443;-70
2022/02/24 06:41:04;;;;;;;816.70;252.47;;;7.80;99.90;;;;;;4956883;28;20555;-70
2022/02/24 06:43:32;;;;;;;671.60;215.13;;;7.80;99.90;;;;;;4955845;29;20460;-70
2022/02/24 06:46:00;;;;;;;643.33;185.00;;;7.80;99.90;;;;;;4957266;29;20513;-70
2022/02/24 06:48:29;;;;;;;403.00;115.87;;;7.80;99.90;;;;;;4956746;28;21030;-70
2022/02/24 06:50:58;;;;;;;206.13;105.07;;;7.80;99.90;;;;;;4956780;28;20461;-70
2022/02/24 06:53:26;;;;;;;184.93;52.93;;;7.80;99.90;;;;;;4955407;28;20485;-70
2022/02/24 06:55:56;;;;;;;227.63;87.13;;;7.80;99.90;;;;;;4956692;28;20488;-70
2022/02/24 06:58:25;;;;;;;241.50;62.13;;;7.80;99.90;;;;;;4956918;28;20502;-70
2022/02/24 07:00:53;;;;;;;318.77;91.13;;;7.80;99.90;;;;;;4957132;28;20831;-70
2022/02/24 07:03:22;;;;;;;138.63;53.93;;;7.70;99.90;;;;;;4956733;28;20455;-70
2022/02/24 07:05:50;;;;;;;483.43;93.83;;;7.70;99.90;;;;;;4956680;29;20474;-70
2022/02/24 07:08:18;;;;;;;89.20;37.03;;;7.70;99.90;;;;;;4956490;28;20943;-70
2022/02/24 07:10:46;;;;;;;145.63;52.77;;;7.70;99.90;;;;;;4956540;28;20508;-70
2022/02/24 07:13:16;;;;;;;292.80;84.57;;;7.70;99.90;;;;;;4955104;28;20540;-70
2022/02/24 07:15:44;;;;;;;201.93;79.10;;;7.70;99.90;;;;;;4956774;29;20764;-70
2022/02/24 07:18:12;;;;;;;420.47;108.90;;;7.70;99.90;;;;;;4956717;29;20475;-70
2022/02/24 07:20:40;;;;;;;470.43;136.53;;;7.70;99.90;;;;;;4956593;28;20483;-70
2022/02/24 07:23:09;;;;;;;267.57;85.40;;;7.70;99.90;;;;;;4954837;29;20983;-70
2022/02/24 07:25:37;;;;;;;423.43;102.73;;;7.70;99.90;;;;;;4954728;29;21006;-70
2022/02/24 07:28:07;;;;;;;470.50;129.47;;;7.70;99.90;;;;;;4956053;28;20955;-70
2022/02/24 07:30:41;;;;;;;339.77;82.67;;;7.70;99.90;;;;;;4956800;28;20480;-70
2022/02/24 07:33:11;;;;;;;630.30;167.13;;;7.70;99.90;;;;;;4954703;29;20469;-70
2022/02/24 07:35:39;;;;;;;923.47;234.47;;;7.70;99.90;;;;;;4954717;29;20538;-70
2022/02/24 07:38:07;;;;;;;901.93;220.37;;;7.80;99.90;;;;;;4956101;28;20445;-70
2022/02/24 07:40:38;;;;;;;1125.77;282.73;;;7.80;99.90;;;;;;4956385;29;20429;-70
2022/02/24 07:43:06;;;;;;;1204.53;274.27;;;7.80;99.90;;;;;;4955806;29;20530;-70
2022/02/24 07:45:34;;;;;;;997.73;217.60;;;7.80;99.90;;;;;;4955624;29;20480;-70
2022/02/24 07:48:05;;;;;;;794.17;205.27;;;7.80;99.90;;;;;;4954414;28;20454;-70
2022/02/24 07:50:33;;;;;;;728.80;200.97;;;7.80;99.90;;;;;;4955892;28;20872;-70
2022/02/24 07:53:02;;;;;;;836.90;210.27;;;7.80;99.90;;;;;;4955705;28;20835;-70
2022/02/24 07:55:30;;;;;;;948.83;239.47;;;7.80;99.90;;;;;;4955571;29;20516;-70
2022/02/24 07:57:59;;;;;;;962.03;241.17;;;7.80;99.90;;;;;;4956003;29;20984;-70
2022/02/24 08:00:27;;;;;;;1044.87;242.63;;;7.80;99.90;;;;;;4955481;28;20450;-70
2022/02/24 08:02:55;;;;;;;780.60;190.10;;;7.90;99.90;;;;;;4955520;28;20528;-70
2022/02/24 08:05:25;;;;;;;786.80;197.33;;;7.90;99.90;;;;;;4955311;28;20481;-70
2022/02/24 08:07:54;;;;;;;639.90;148.53;;;7.90;99.90;;;;;;4955447;29;20859;-70
2022/02/24 08:10:22;;;;;;;1357.33;254.30;;;7.90;99.90;;;;;;4955485;28;20544;-70
2022/02/24 08:12:50;;;;;;;1396.33;340.00;;;7.90;99.90;;;;;;4954064;28;20474;-70
2022/02/24 08:15:23;;;;;;;1785.50;404.07;;;8.00;99.90;;;;;;4954366;28;20812;-70
2022/02/24 08:17:52;;;;;;;1356.07;310.93;;;8.00;99.90;;;;;;4955322;28;20516;-70
2022/02/24 08:20:24;;;;;;;1941.80;459.47;;;8.10;99.90;;;;;;4955773;28;20427;-70
2022/02/24 08:22:53;;;;;;;1594.83;355.87;;;8.10;99.90;;;;;;4955400;28;20460;-70
2022/02/24 08:25:23;;;;;;;1564.47;334.10;;;8.10;99.90;;;;;;4954381;28;20463;-70
2022/02/24 08:27:52;;;;;;;1636.80;389.23;;;8.20;99.90;;;;;;4955123;29;20479;-70
2022/02/24 08:30:23;;;;;;;1999.90;663.53;;;8.20;99.90;;;;;;4955546;29;20453;-70
2022/02/24 08:32:53;;;;;;;1999.90;643.17;;;8.20;99.90;;;;;;4953770;28;20475;-70
2022/02/24 08:35:23;;;;;;;1870.67;494.10;;;8.30;99.90;;;;;;4955295;29;20446;-71
2022/02/24 08:37:53;;;;;;;1999.90;832.23;;;8.30;99.90;;;;;;4954775;29;20477;-70
2022/02/24 08:40:23;;;;;;;1999.90;849.10;;;8.30;99.90;;;;;;4955026;29;20883;-70
2022/02/24 08:42:52;;;;;;;1999.90;873.00;;;8.30;99.90;;;;;;4954821;28;20979;-70
2022/02/24 08:45:20;;;;;;;1999.90;703.73;;;8.40;99.90;;;;;;4954848;28;20845;-70
2022/02/24 08:47:49;;;;;;;1999.90;759.23;;;8.40;99.90;;;;;;4955183;29;20452;-70
2022/02/24 08:50:17;;;;;;;1999.90;892.00;;;8.40;99.90;;;;;;4954959;29;20513;-70
2022/02/24 08:53:05;;;;;;;1963.47;554.43;;;8.40;99.90;;;;;;4955083;28;20524;-70
2022/02/24 08:55:33;;;;;;;1999.90;711.00;;;8.50;99.90;;;;;;4955525;28;20450;-70
2022/02/24 08:58:03;;;;;;;1999.90;720.10;;;8.50;99.90;;;;;;4954902;29;20445;-70
2022/02/24 09:00:33;;;;;;;1825.60;432.13;;;8.50;99.90;;;;;;4955449;28;20426;-70
2022/02/24 09:03:02;;;;;;;1999.90;631.50;;;8.50;99.90;;;;;;4954761;28;20458;-70
2022/02/24 09:05:33;;;;;;;1999.90;791.23;;;8.60;99.90;;;;;;4955236;29;20912;-70
2022/02/24 09:08:01;;;;;;;1999.90;765.97;;;8.60;99.90;;;;;;4954753;29;20469;-70
2022/02/24 09:10:32;;;;;;;1999.90;873.60;;;8.60;99.90;;;;;;4954763;28;20878;-70
2022/02/24 09:13:00;;;;;;;1999.90;956.50;;;8.60;99.90;;;;;;4954867;28;20473;-70
2022/02/24 09:15:31;;;;;;;1999.90;955.87;;;8.60;99.90;;;;;;4954667;29;20446;-70
2022/02/24 09:18:04;;;;;;;1999.90;999.90;;;8.70;99.90;;;;;;4955021;29;20453;-70
2022/02/24 09:20:33;;;;;;;1999.90;965.47;;;8.80;99.90;;;;;;4954878;29;20528;-70
2022/02/24 09:23:01;;;;;;;1999.90;994.57;;;8.90;99.90;;;;;;4953480;28;20497;-70
2022/02/24 09:25:31;;;;;;;1999.90;946.50;;;8.90;99.90;;;;;;4954828;29;20478;-70
2022/02/24 09:27:59;;;;;;;1999.90;621.67;;;9.00;99.90;;;;;;4954514;29;20525;-70
2022/02/24 09:30:29;;;;;;;1999.90;963.63;;;9.00;99.90;;;;;;4953239;29;20541;-70
2022/02/24 09:32:57;;;;;;;1999.90;689.87;;;9.00;99.90;;;;;;4954729;28;20474;-70
2022/02/24 09:35:26;;;;;;;1999.90;501.33;;;9.10;99.90;;;;;;4954529;28;20522;-70
2022/02/24 09:37:54;;;;;;;1999.90;313.77;;;9.10;99.90;;;;;;4954759;29;20542;-70
2022/02/24 09:40:25;;;;;;;1999.90;821.47;;;9.10;99.90;;;;;;4954727;29;20446;-70
2022/02/24 09:43:16;;;;;;;1999.90;427.63;;;9.20;99.90;;;;;;4954739;29;20993;-70
2022/02/24 09:45:46;;;;;;;1999.90;289.60;;;9.20;99.90;;;;;;4953478;29;20487;-70
2022/02/24 09:48:17;;;;;;;1999.90;212.50;;;9.30;99.90;;;;;;4954661;28;20467;-70
2022/02/24 09:50:50;;;;;;;1816.30;701.30;;;9.30;99.90;;;;;;4954413;28;20507;-70
2022/02/24 09:53:18;;;;;;;1936.83;427.43;;;9.30;99.90;;;;;;4958096;29;20901;-70
2022/02/24 09:55:47;;;;;;;1999.90;999.90;;;9.30;99.90;;;;;;4958091;28;20448;-70
2022/02/24 09:58:16;;;;;;;1815.80;124.53;;;9.30;99.90;;;;;;4956479;29;20443;-70
2022/02/24 10:00:47;;;;;;;1999.90;715.80;;;9.30;99.90;;;;;;4957922;28;20454;-70
2022/02/24 10:03:25;;;;;;;1999.90;719.77;;;9.30;99.90;;;;;;4956365;29;20450;-70
2022/02/24 10:05:54;;;;;;;1999.90;999.90;;;9.40;99.90;;;;;;4958233;28;20488;-70
2022/02/24 10:08:28;;;;;;;1999.90;999.90;;;9.50;99.90;;;;;;4956190;29;20893;-70
2022/02/24 10:10:58;;;;;;;1970.97;697.77;;;9.50;99.90;;;;;;4958050;28;20892;-70
2022/02/24 10:13:28;;;;;;;1999.90;999.90;;;9.50;99.90;;;;;;4957486;29;20443;-70
2022/02/24 10:15:58;;;;;;;1997.50;719.27;;;9.50;99.90;;;;;;4958004;29;20423;-70
2022/02/24 10:18:28;;;;;;;1936.50;716.83;;;9.50;99.90;;;;;;4957405;29;20435;-70
2022/02/24 10:21:00;;;;;;;1999.90;999.90;;;9.50;99.90;;;;;;4957475;28;20892;-70
2022/02/24 10:23:34;;;;;;;1999.90;460.37;;;9.60;99.90;;;;;;4957552;29;20430;-70
2022/02/24 10:26:05;;;;;;;1999.90;999.90;;;9.60;99.90;;;;;;4955947;29;20474;-70
2022/02/24 10:28:38;;;;;;;1999.90;999.90;;;9.60;99.90;;;;;;4957427;29;20486;-70
2022/02/24 10:31:09;;;;;;;1999.90;999.90;;;9.60;99.90;;;;;;4955823;28;20553;-71
2022/02/24 10:33:39;;;;;;;1999.90;999.90;;;9.60;99.90;;;;;;4957395;28;20952;-70
2022/02/24 10:36:15;;;;;;;1999.90;999.90;;;9.70;99.90;;;;;;4957296;28;20541;-70
2022/02/24 10:38:45;;;;;;;1999.90;999.90;;;9.70;99.90;;;;;;4957521;29;20426;-70
2022/02/24 10:41:14;;;;;;;1999.90;999.90;;;9.70;99.90;;;;;;4955765;28;20497;-70
2022/02/24 10:43:47;;;;;;;1999.90;999.90;;;9.70;99.90;;;;;;4956960;29;20447;-70
2022/02/24 10:46:17;;;;;;;1999.90;746.07;;;9.80;99.90;;;;;;4955832;28;20446;-70
2022/02/24 10:48:51;;;;;;;1999.90;999.90;;;9.80;99.90;;;;;;4956753;28;20951;-70
2022/02/24 10:51:28;;;;;;;1999.90;474.40;;;9.90;99.90;;;;;;4957002;28;20550;-70
2022/02/24 10:54:02;;;;;;;1999.90;999.90;;;9.90;99.90;;;;;;4955517;28;20541;-71
2022/02/24 10:56:31;;;;;;;1999.90;999.90;;;10.00;99.90;;;;;;4956639;28;20510;-70
2022/02/24 10:59:00;;;;;;;1999.90;999.90;;;10.00;99.90;;;;;;4957344;28;20447;-70
2022/02/24 11:01:30;;;;;;;1999.90;748.73;;;10.10;99.90;;;;;;4956333;28;20542;-70
2022/02/24 11:04:00;;;;;;;1999.90;552.70;;;10.10;99.90;;;;;;4956851;29;20446;-70
2022/02/24 11:06:33;;;;;;;1999.90;541.20;;;10.10;99.90;;;;;;4957151;29;20423;-70
2022/02/24 11:09:04;;;;;;;1999.90;747.37;;;10.10;99.90;;;;;;4955288;29;20446;-70
2022/02/24 11:11:34;;;;;;;1999.90;999.90;;;10.10;99.90;;;;;;4956555;28;20509;-70
2022/02/24 11:14:06;;;;;;;1999.90;747.53;;;10.20;99.90;;;;;;4956710;29;20447;-70
2022/02/24 11:16:34;;;;;;;1999.90;999.90;;;10.20;99.90;;;;;;4956587;29;20880;-70
2022/02/24 11:19:04;;;;;;;1999.90;999.90;;;10.30;99.90;;;;;;4956351;29;20442;-70
2022/02/24 11:21:32;;;;;;;1999.90;441.53;;;10.30;99.90;;;;;;4956517;28;20462;-70
2022/02/24 11:24:00;;;;;;;1999.90;819.93;;;10.40;99.90;;;;;;4956525;28;20683;-70
2022/02/24 11:26:50;;;;;;;1999.90;427.67;;;10.40;99.90;;;;;;4956275;29;20438;-70
2022/02/24 11:29:27;;;;;;;1999.90;464.90;;;10.40;99.90;;;;;;4956401;29;20477;-71
2022/02/24 11:32:04;;;;;;;1999.90;999.90;;;10.40;99.90;;;;;;4956385;28;20468;-70
2022/02/24 11:35:10;;;;;;;1999.90;616.07;;;10.40;99.90;;;;;;4956293;28;20784;-70
2022/02/24 11:37:41;;;;;;;1999.90;452.50;;;10.40;99.90;;;;;;4956153;29;20473;-70
2022/02/24 11:40:12;;;;;;;1999.90;467.07;;;10.50;99.90;;;;;;4955944;29;20419;-70
2022/02/24 11:42:43;;;;;;;1647.70;334.13;;;10.50;99.90;;;;;;4954576;28;20574;-70
2022/02/24 11:45:33;;;;;;;1375.13;236.50;;;10.60;99.90;;;;;;4956088;29;20423;-70
2022/02/24 11:48:03;;;;;;;1768.43;291.87;;;10.60;99.90;;;;;;4955964;29;20501;-70
2022/02/24 11:50:37;;;;;;;949.73;186.00;;;10.60;99.90;;;;;;4956298;29;20453;-70
2022/02/24 11:53:07;;;;;;;460.03;81.03;;;10.70;99.90;;;;;;4956571;28;20525;-70
2022/02/24 11:55:47;;;;;;;280.13;63.17;;;10.70;99.90;;;;;;4954587;28;20982;-70
2022/02/24 11:58:52;;;;;;;1565.07;314.77;;;10.70;99.90;;;;;;4955914;29;20427;-70
2022/02/24 12:01:42;;;;;;;1917.63;450.23;;;10.70;99.90;;;;;;4954494;28;20528;-70
2022/02/24 12:04:20;;;;;;;1999.90;507.57;;;10.70;99.90;;;;;;4955591;29;20980;-70
2022/02/24 12:07:11;;;;;;;1999.90;598.40;;;10.60;99.90;;;;;;4954328;29;20457;-70
2022/02/24 12:09:40;;;;;;;1939.70;437.70;;;10.60;99.90;;;;;;4955398;29;20435;-70
2022/02/24 12:12:11;;;;;;;1817.53;338.63;;;10.60;99.90;;;;;;4955213;28;20466;-71
2022/02/24 12:14:50;;;;;;;1524.13;261.20;;;10.70;99.90;;;;;;4955366;28;20458;-70
2022/02/24 12:17:25;;;;;;;1889.13;444.50;;;10.70;99.90;;;;;;4955650;29;20497;-71
2022/02/24 12:19:56;;;;;;;129.40;31.10;;;10.70;99.90;;;;;;4955602;29;20429;-71
2022/02/24 12:22:31;;;;;;;547.33;118.63;;;10.80;99.90;;;;;;4955404;28;20485;-70
2022/02/24 12:25:09;;;;;;;101.70;51.17;;;10.80;99.90;;;;;;4955260;29;20500;-71